createdAt,value
2022-09-03T00:03:09.834Z,13.52
2022-09-03T00:06:21.838Z,13.49
2022-09-03T00:09:29.992Z,13.48
2022-09-03T00:12:39.676Z,13.48
2022-09-03T00:15:42.049Z,13.49
2022-09-03T00:18:48.804Z,13.47
2022-09-03T00:22:19.322Z,13.46
2022-09-03T00:25:27.740Z,13.42
2022-09-03T00:28:41.896Z,13.42
2022-09-03T00:31:47.841Z,13.42
2022-09-03T00:34:57.208Z,13.41
2022-09-03T00:38:00.096Z,13.37
2022-09-03T00:41:01.919Z,13.29
2022-09-03T00:44:12.916Z,13.29
2022-09-03T00:47:48.672Z,13.28
2022-09-03T00:51:00.393Z,13.23
2022-09-03T00:54:33.255Z,13.24
2022-09-03T00:58:08.744Z,13.20
2022-09-03T01:01:22.060Z,13.23
2022-09-03T01:04:54.372Z,13.25
2022-09-03T01:08:26.537Z,13.27
2022-09-03T01:11:47.518Z,13.29
2022-09-03T01:15:10.838Z,13.33
2022-09-03T01:18:21.700Z,13.33
2022-09-03T01:21:39.035Z,13.32
2022-09-03T01:25:12.033Z,13.37
2022-09-03T01:28:33.548Z,13.28
2022-09-03T01:31:57.696Z,13.29
2022-09-03T01:35:19.893Z,13.35
2022-09-03T01:38:32.096Z,13.33
2022-09-03T01:42:20.513Z,13.34
2022-09-03T01:45:40.376Z,13.33
2022-09-03T01:49:16.162Z,13.33
2022-09-03T01:52:38.451Z,13.37
2022-09-03T01:56:17.516Z,13.33
2022-09-03T01:59:27.880Z,13.33
2022-09-03T02:02:30.946Z,13.33
2022-09-03T02:05:35.810Z,13.36
2022-09-03T02:08:38.228Z,13.40
2022-09-03T02:11:41.327Z,13.38
2022-09-03T02:14:43.929Z,13.36
2022-09-03T02:17:49.883Z,13.35
2022-09-03T02:20:54.805Z,13.29
2022-09-03T02:23:56.786Z,13.27
2022-09-03T02:26:58.997Z,13.23
2022-09-03T02:30:01.015Z,13.21
2022-09-03T02:33:03.922Z,13.18
2022-09-03T02:36:09.319Z,13.16
2022-09-03T02:39:11.905Z,13.14
2022-09-03T02:42:15.719Z,13.10
2022-09-03T02:45:47.570Z,13.05
2022-09-03T02:48:50.568Z,12.98
2022-09-03T02:51:52.623Z,12.96
2022-09-03T02:54:54.511Z,12.91
2022-09-03T02:57:57.752Z,12.89
2022-09-03T03:00:59.988Z,12.85
2022-09-03T03:04:02.170Z,12.83
2022-09-03T03:07:05.084Z,12.80
2022-09-03T03:10:07.537Z,12.78
2022-09-03T03:13:09.569Z,12.81
2022-09-03T03:16:11.918Z,12.83
2022-09-03T03:19:13.806Z,12.87
2022-09-03T03:22:15.722Z,12.91
2022-09-03T03:25:17.858Z,12.96
2022-09-03T03:28:20.750Z,13.02
2022-09-03T03:31:23.404Z,13.10
2022-09-03T03:34:25.496Z,13.17
2022-09-03T03:37:27.384Z,13.20
2022-09-03T03:40:29.381Z,13.27
2022-09-03T03:43:31.295Z,13.32
2022-09-03T03:46:37.730Z,13.41
2022-09-03T03:49:39.707Z,13.48
2022-09-03T03:52:41.879Z,13.52
2022-09-03T03:55:43.932Z,13.59
2022-09-03T03:58:45.860Z,13.70
2022-09-03T04:01:49.092Z,13.81
2022-09-03T04:04:51.108Z,13.91
2022-09-03T04:07:53.029Z,13.97
2022-09-03T04:10:55.011Z,14.04
2022-09-03T04:13:56.991Z,14.14
2022-09-03T04:16:59.075Z,14.23
2022-09-03T04:20:01.118Z,14.38
2022-09-03T04:23:03.308Z,14.52
2022-09-03T04:26:06.293Z,14.61
2022-09-03T04:29:10.306Z,14.64
2022-09-03T04:32:31.051Z,14.71
2022-09-03T04:35:35.884Z,14.85
2022-09-03T04:38:42.053Z,14.95
2022-09-03T04:41:44.600Z,15.04
2022-09-03T04:44:46.489Z,15.10
2022-09-03T04:48:02.257Z,15.23
2022-09-03T04:51:07.316Z,15.33
2022-09-03T04:54:10.405Z,15.40
2022-09-03T04:57:12.387Z,15.42
2022-09-03T05:00:18.274Z,15.46
2022-09-03T05:03:22.304Z,15.53
2022-09-03T05:06:25.883Z,15.60
2022-09-03T05:09:27.794Z,15.69
2022-09-03T05:12:31.819Z,15.78
2022-09-03T05:15:33.729Z,15.85
2022-09-03T05:18:36.585Z,16.03
2022-09-03T05:21:38.702Z,16.17
2022-09-03T05:24:40.595Z,16.34
2022-09-03T05:27:42.668Z,16.48
2022-09-03T05:30:44.623Z,16.69
2022-09-03T05:33:59.748Z,16.83
2022-09-03T05:37:01.817Z,16.88
2022-09-03T05:40:04.785Z,16.86
2022-09-03T05:43:08.593Z,16.90
2022-09-03T05:46:18.701Z,17.02
2022-09-03T05:49:20.573Z,17.10
2022-09-03T05:52:23.612Z,17.23
2022-09-03T05:55:25.504Z,17.34
2022-09-03T05:58:42.452Z,17.43
2022-09-03T06:01:51.102Z,17.60
2022-09-03T06:04:56.278Z,17.77
2022-09-03T06:07:58.199Z,17.88
2022-09-03T06:11:01.957Z,17.98
2022-09-03T06:14:06.445Z,18.00
2022-09-03T06:17:11.389Z,18.04
2022-09-03T06:20:13.352Z,17.95
2022-09-03T06:23:15.325Z,17.96
2022-09-03T06:26:17.845Z,17.84
2022-09-03T06:29:20.361Z,17.91
2022-09-03T06:32:22.294Z,17.88
2022-09-03T06:35:24.233Z,17.67
2022-09-03T06:38:29.831Z,17.63
2022-09-03T06:41:35.634Z,17.71
2022-09-03T06:44:37.661Z,17.75
2022-09-03T06:47:39.606Z,17.92
2022-09-03T06:50:41.525Z,18.35
2022-09-03T06:53:46.493Z,18.92
2022-09-03T06:56:48.480Z,19.25
2022-09-03T06:59:50.670Z,19.61
2022-09-03T07:02:59.144Z,20.03
2022-09-03T07:06:13.434Z,20.39
2022-09-03T07:09:18.272Z,20.58
2022-09-03T07:12:20.441Z,21.02
2022-09-03T07:15:22.393Z,21.07
2022-09-03T07:18:24.449Z,21.03
2022-09-03T07:21:28.646Z,21.17
2022-09-03T07:24:30.668Z,21.29
2022-09-03T07:27:34.677Z,21.43
2022-09-03T07:30:36.787Z,21.46
2022-09-03T07:33:39.944Z,21.60
2022-09-03T07:36:51.419Z,21.43
2022-09-03T07:39:54.167Z,21.30
2022-09-03T07:43:03.568Z,21.31
2022-09-03T07:46:07.137Z,21.37
2022-09-03T07:49:09.617Z,21.56
2022-09-03T07:52:11.887Z,21.56
2022-09-03T07:55:16.052Z,21.42
2022-09-03T07:58:18.143Z,21.38
2022-09-03T08:01:22.613Z,21.24
2022-09-03T08:04:24.569Z,21.40
2022-09-03T08:07:26.625Z,21.77
2022-09-03T08:10:31.240Z,22.04
2022-09-03T08:13:34.089Z,22.20
2022-09-03T08:16:39.739Z,22.21
2022-09-03T08:19:43.836Z,22.26
2022-09-03T08:22:46.360Z,22.29
2022-09-03T08:25:48.555Z,22.42
2022-09-03T08:28:53.003Z,22.85
2022-09-03T08:31:55.067Z,23.07
2022-09-03T08:34:57.109Z,23.24
2022-09-03T08:38:01.853Z,23.45
2022-09-03T08:41:12.926Z,23.43
2022-09-03T08:44:49.171Z,23.62
2022-09-03T08:48:07.522Z,24.11
2022-09-03T08:51:12.474Z,24.44
2022-09-03T08:54:16.192Z,24.69
2022-09-03T08:57:21.134Z,24.76
2022-09-03T09:00:23.315Z,24.77
2022-09-03T09:03:48.104Z,24.43
2022-09-03T09:07:28.186Z,24.51
2022-09-03T09:10:47.021Z,24.74
2022-09-03T09:14:11.767Z,24.87
2022-09-03T09:17:19.572Z,24.78
2022-09-03T09:20:48.369Z,24.48
2022-09-03T09:23:51.563Z,24.25
2022-09-03T09:26:59.668Z,24.17
2022-09-03T09:30:05.302Z,24.58
2022-09-03T09:33:08.129Z,24.83
2022-09-03T09:36:15.617Z,24.84
2022-09-03T09:39:17.807Z,24.96
2022-09-03T09:42:21.649Z,24.66
2022-09-03T09:45:23.752Z,24.64
2022-09-03T09:48:34.550Z,24.77
2022-09-03T09:51:36.533Z,24.86
2022-09-03T09:54:40.508Z,24.80
2022-09-03T09:57:42.560Z,24.58
2022-09-03T10:01:00.229Z,24.39
2022-09-03T10:04:24.752Z,24.04
2022-09-03T10:07:34.913Z,23.75
2022-09-03T10:10:44.766Z,23.50
2022-09-03T10:13:48.731Z,23.35
2022-09-03T10:17:01.830Z,23.40
2022-09-03T10:20:37.389Z,23.37
2022-09-03T10:24:15.962Z,23.36
2022-09-03T10:27:19.989Z,23.32
2022-09-03T10:30:23.043Z,23.37
2022-09-03T10:33:34.983Z,23.24
2022-09-03T10:36:49.067Z,22.97
2022-09-03T10:40:28.924Z,23.02
2022-09-03T10:43:45.974Z,23.08
2022-09-03T10:47:03.771Z,23.10
2022-09-03T10:50:13.244Z,23.26
2022-09-03T10:53:33.812Z,23.43
2022-09-03T10:56:54.957Z,23.64
2022-09-03T11:00:09.892Z,23.64
2022-09-03T11:03:12.780Z,23.75
2022-09-03T11:06:26.313Z,23.69
2022-09-03T11:10:06.572Z,23.48
2022-09-03T11:13:20.390Z,23.51
2022-09-03T11:16:29.106Z,23.20
2022-09-03T11:19:57.660Z,23.04
2022-09-03T11:23:03.295Z,22.92
2022-09-03T11:26:13.751Z,22.90
2022-09-03T11:29:48.913Z,22.90
2022-09-03T11:33:00.548Z,22.84
2022-09-03T11:36:06.644Z,22.74
2022-09-03T11:39:35.236Z,22.58
2022-09-03T11:42:41.330Z,22.82
2022-09-03T11:45:43.514Z,22.75
2022-09-03T11:48:47.771Z,22.72
2022-09-03T11:52:01.100Z,22.61
2022-09-03T11:55:03.909Z,22.62
2022-09-03T11:58:39.517Z,22.65
2022-09-03T12:01:53.256Z,22.83
2022-09-03T12:05:02.545Z,22.97
2022-09-03T12:08:08.784Z,23.04
2022-09-03T12:11:30.555Z,22.93
2022-09-03T12:15:09.264Z,22.91
2022-09-03T12:18:22.753Z,22.85
2022-09-03T12:21:26.166Z,23.12
2022-09-03T12:24:35.827Z,23.25
2022-09-03T12:27:44.224Z,23.16
2022-09-03T12:30:47.108Z,23.20
2022-09-03T12:33:57.839Z,23.23
2022-09-03T12:36:59.925Z,23.44
2022-09-03T12:40:07.492Z,23.67
2022-09-03T12:46:38.210Z,23.67
2022-09-03T12:49:42.821Z,23.68
2022-09-03T12:52:56.627Z,23.48
2022-09-03T12:56:02.833Z,23.47
2022-09-03T12:59:12.369Z,23.39
2022-09-03T13:02:24.710Z,23.33
2022-09-03T13:05:42.385Z,23.27
2022-09-03T13:08:55.396Z,23.34
2022-09-03T13:11:59.295Z,23.22
2022-09-03T13:15:09.219Z,23.00
2022-09-03T13:18:26.476Z,22.75
2022-09-03T13:21:28.465Z,22.49
2022-09-03T13:24:59.487Z,22.31
2022-09-03T13:28:36.137Z,22.22
2022-09-03T13:31:47.742Z,22.28
2022-09-03T13:34:58.497Z,22.39
2022-09-03T13:38:42.826Z,22.37
2022-09-03T13:42:13.451Z,22.34
2022-09-03T13:45:31.202Z,22.29
2022-09-03T13:49:00.397Z,22.15
2022-09-03T13:52:07.770Z,21.93
2022-09-03T13:55:19.890Z,21.66
2022-09-03T13:58:54.677Z,21.42
2022-09-03T14:02:05.796Z,21.23
2022-09-03T14:05:32.400Z,21.13
2022-09-03T14:09:04.442Z,21.00
2022-09-03T14:12:25.533Z,20.84
2022-09-03T14:15:45.733Z,20.62
2022-09-03T14:19:07.321Z,20.50
2022-09-03T14:22:34.829Z,20.38
2022-09-03T14:25:36.878Z,20.27
2022-09-03T14:28:44.092Z,20.23
2022-09-03T14:32:13.677Z,20.25
2022-09-03T14:35:30.985Z,20.19
2022-09-03T14:38:53.752Z,20.07
2022-09-03T14:41:55.588Z,19.88
2022-09-03T14:45:16.661Z,19.65
2022-09-03T14:48:33.700Z,19.63
2022-09-03T14:51:35.614Z,19.60
2022-09-03T14:55:08.288Z,19.53
2022-09-03T14:58:24.661Z,19.40
2022-09-03T15:01:37.609Z,19.34
2022-09-03T15:04:56.081Z,19.27
2022-09-03T15:08:17.196Z,19.08
2022-09-03T15:11:30.352Z,19.05
2022-09-03T15:14:55.616Z,19.01
2022-09-03T15:18:03.903Z,19.00
2022-09-03T15:21:48.409Z,18.80
2022-09-03T15:25:08.888Z,18.74
2022-09-03T15:28:16.270Z,18.68
2022-09-03T15:31:45.944Z,18.53
2022-09-03T15:35:09.661Z,18.52
2022-09-03T15:38:35.894Z,18.34
2022-09-03T15:41:40.938Z,18.31
2022-09-03T15:44:50.274Z,18.21
2022-09-03T15:48:01.703Z,18.18
2022-09-03T15:51:13.051Z,18.16
2022-09-03T15:54:43.181Z,18.11
2022-09-03T15:58:21.157Z,18.05
2022-09-03T16:01:34.275Z,17.99
2022-09-03T16:05:07.180Z,17.94
2022-09-03T16:08:34.148Z,17.85
2022-09-03T16:11:39.080Z,17.80
2022-09-03T16:14:47.135Z,17.80
2022-09-03T16:18:06.743Z,17.76
2022-09-03T16:21:39.403Z,17.72
2022-09-03T16:24:47.642Z,17.65
2022-09-03T16:28:01.648Z,17.64
2022-09-03T16:31:24.247Z,17.52
2022-09-03T16:34:51.179Z,17.53
2022-09-03T16:38:02.718Z,17.41
2022-09-03T16:41:13.012Z,17.33
2022-09-03T16:44:14.986Z,17.30
2022-09-03T16:47:44.918Z,17.23
2022-09-03T16:50:58.222Z,17.17
2022-09-03T16:54:12.669Z,17.13
2022-09-03T16:57:24.597Z,17.17
2022-09-03T17:00:47.595Z,17.14
2022-09-03T17:04:22.709Z,17.10
2022-09-03T17:07:54.850Z,17.10
2022-09-03T17:11:00.660Z,17.00
2022-09-03T17:14:17.904Z,17.07
2022-09-03T17:17:25.796Z,17.07
2022-09-03T17:20:40.853Z,17.07
2022-09-03T17:24:10.952Z,17.05
2022-09-03T17:27:21.054Z,17.05
2022-09-03T17:30:35.783Z,16.97
2022-09-03T17:34:15.735Z,16.97
2022-09-03T17:37:31.850Z,16.91
2022-09-03T17:41:13.977Z,16.88
2022-09-03T17:44:24.367Z,16.87
2022-09-03T17:47:56.367Z,16.90
2022-09-03T17:51:14.841Z,16.90
2022-09-03T17:54:24.570Z,16.90
2022-09-03T17:57:41.743Z,16.88
2022-09-03T18:01:11.051Z,16.90
2022-09-03T18:04:39.018Z,16.88
2022-09-03T18:08:16.829Z,16.86
2022-09-03T18:11:30.799Z,16.84
2022-09-03T18:14:53.479Z,16.82
2022-09-03T18:18:12.748Z,16.83
2022-09-03T18:21:44.587Z,16.83
2022-09-03T18:25:17.918Z,16.82
2022-09-03T18:28:48.206Z,16.76
2022-09-03T18:32:09.127Z,16.70
2022-09-03T18:35:30.641Z,16.70
2022-09-03T18:38:56.814Z,16.66
2022-09-03T18:43:25.316Z,16.56
2022-09-03T18:48:01.888Z,16.45
2022-09-03T18:51:19.552Z,16.39
2022-09-03T18:55:08.818Z,16.38
2022-09-03T18:58:49.150Z,16.32
2022-09-03T19:02:12.460Z,16.28
2022-09-03T19:05:46.797Z,16.24
2022-09-03T19:09:24.757Z,16.21
2022-09-03T19:13:15.582Z,16.17
2022-09-03T19:16:48.889Z,16.17
2022-09-03T19:20:42.894Z,16.10
2022-09-03T19:24:04.008Z,15.99
2022-09-03T19:31:37.770Z,15.82
2022-09-03T19:35:22.794Z,15.73
2022-09-03T19:39:07.017Z,15.77
2022-09-03T19:42:53.019Z,15.90
2022-09-03T19:46:53.899Z,16.01
2022-09-03T19:50:56.665Z,16.08
2022-09-03T19:54:21.214Z,16.05
2022-09-03T19:57:47.172Z,16.13
2022-09-03T20:01:08.280Z,16.10
2022-09-03T20:04:36.625Z,16.12
2022-09-03T20:07:57.647Z,16.03
2022-09-03T20:11:00.826Z,15.96
2022-09-03T20:14:14.905Z,15.86
2022-09-03T20:17:43.785Z,15.84
2022-09-03T20:21:13.003Z,15.91
2022-09-03T20:24:21.523Z,15.93
2022-09-03T20:27:34.137Z,15.94
2022-09-03T20:30:44.966Z,15.81
2022-09-03T20:34:11.617Z,15.74
2022-09-03T20:37:28.543Z,15.81
2022-09-03T20:41:01.649Z,15.84
2022-09-03T20:44:16.845Z,15.77
2022-09-03T20:47:41.550Z,15.74
2022-09-03T20:50:57.484Z,15.73
2022-09-03T20:54:20.766Z,15.64
2022-09-03T20:57:37.939Z,15.58
2022-09-03T21:00:48.193Z,15.67
2022-09-03T21:04:08.916Z,15.66
2022-09-03T21:07:35.133Z,15.66
2022-09-03T21:10:52.753Z,15.74
2022-09-03T21:14:10.472Z,15.86
2022-09-03T21:17:29.787Z,16.00
2022-09-03T21:20:34.442Z,16.12
2022-09-03T21:23:42.152Z,16.18
2022-09-03T21:26:52.056Z,16.34
2022-09-03T21:30:07.774Z,16.29
2022-09-03T21:33:16.958Z,16.25
2022-09-03T21:36:30.579Z,16.32
2022-09-03T21:39:50.978Z,16.32
2022-09-03T21:43:04.365Z,16.35
2022-09-03T21:46:17.303Z,16.37
2022-09-03T21:49:26.368Z,16.40
2022-09-03T21:52:47.858Z,16.25
2022-09-03T21:55:55.925Z,16.23
2022-09-03T21:59:35.541Z,16.09
2022-09-03T22:02:38.593Z,16.07
2022-09-03T22:06:08.608Z,15.92
2022-09-03T22:09:56.800Z,15.82
2022-09-03T22:13:23.485Z,15.73
2022-09-03T22:16:46.405Z,15.55
2022-09-03T22:19:48.326Z,15.57
2022-09-03T22:22:56.626Z,15.48
2022-09-03T22:26:07.511Z,15.38
2022-09-03T22:29:52.012Z,15.26
2022-09-03T22:32:57.958Z,15.14
2022-09-03T22:36:21.245Z,15.10
2022-09-03T22:39:36.560Z,14.89
2022-09-03T22:42:51.602Z,14.76
2022-09-03T22:46:05.536Z,14.77
2022-09-03T22:49:14.522Z,14.67
2022-09-03T22:52:19.555Z,14.58
2022-09-03T22:55:25.424Z,14.42
2022-09-03T22:58:33.600Z,14.31
2022-09-03T23:01:44.709Z,14.26
2022-09-03T23:05:10.176Z,14.31
2022-09-03T23:08:18.091Z,14.35
2022-09-03T23:11:25.903Z,14.26
2022-09-03T23:14:34.545Z,14.03
2022-09-03T23:17:43.105Z,13.85
2022-09-03T23:20:55.458Z,13.68
2022-09-03T23:24:04.143Z,13.55
2022-09-03T23:27:10.784Z,13.42
2022-09-03T23:30:12.747Z,13.33
2022-09-03T23:33:14.882Z,13.22
2022-09-03T23:37:01.303Z,13.15
2022-09-03T23:40:14.886Z,13.08
2022-09-03T23:43:25.808Z,13.03
2022-09-03T23:46:58.597Z,12.97
2022-09-03T23:50:09.355Z,12.96
2022-09-03T23:53:20.426Z,12.95
2022-09-03T23:56:34.738Z,12.94
2022-09-03T23:59:48.765Z,12.97
